createdAt,value
2023-11-24T00:09:56.953Z,99.90
2023-11-24T00:15:20.290Z,99.40
2023-11-24T00:20:43.062Z,97.60
2023-11-24T00:26:07.954Z,97.60
2023-11-24T00:31:34.730Z,97.10
2023-11-24T00:36:57.641Z,97.40
2023-11-24T00:42:21.967Z,98.10
2023-11-24T00:47:45.003Z,98.90
2023-11-24T00:53:08.794Z,98.40
2023-11-24T00:58:33.312Z,98.10
2023-11-24T01:03:56.215Z,99.50
2023-11-24T01:09:19.082Z,99.00
2023-11-24T01:14:43.324Z,98.80
2023-11-24T01:20:08.419Z,98.30
2023-11-24T01:25:31.388Z,97.70
2023-11-24T01:30:57.910Z,97.90
2023-11-24T01:36:21.691Z,98.60
2023-11-24T01:41:44.620Z,97.60
2023-11-24T01:47:09.159Z,98.00
2023-11-24T01:52:33.322Z,98.40
2023-11-24T01:57:56.662Z,97.50
2023-11-24T02:03:21.182Z,97.70
2023-11-24T02:08:44.921Z,97.00
2023-11-24T02:14:07.792Z,97.90
2023-11-24T02:19:32.566Z,96.40
2023-11-24T02:24:56.820Z,97.70
2023-11-24T02:30:19.757Z,99.90
2023-11-24T02:35:42.839Z,99.90
2023-11-24T02:41:07.255Z,99.90
2023-11-24T02:46:30.046Z,99.90
2023-11-24T02:51:53.072Z,99.90
2023-11-24T02:57:17.455Z,99.90
2023-11-24T03:02:41.030Z,99.90
2023-11-24T03:08:04.286Z,99.90
2023-11-24T03:13:28.811Z,99.90
2023-11-24T03:18:51.705Z,99.90
2023-11-24T03:24:15.218Z,99.90
2023-11-24T03:29:40.781Z,99.90
2023-11-24T03:35:03.840Z,99.90
2023-11-24T03:40:26.809Z,99.90
2023-11-24T03:45:51.047Z,99.90
2023-11-24T03:51:19.051Z,99.90
2023-11-24T03:56:42.017Z,99.90
2023-11-24T04:02:06.517Z,99.90
2023-11-24T04:07:29.574Z,99.90
2023-11-24T04:12:53.609Z,99.90
2023-11-24T04:18:17.922Z,99.90
2023-11-24T04:23:40.800Z,99.90
2023-11-24T04:29:03.778Z,99.90
2023-11-24T04:34:28.514Z,99.90
2023-11-24T04:39:51.374Z,99.90
2023-11-24T04:45:14.736Z,99.90
2023-11-24T04:50:39.205Z,99.90
2023-11-24T04:56:02.094Z,99.90
2023-11-24T05:01:27.774Z,99.90
2023-11-24T05:06:54.018Z,99.90
2023-11-24T05:12:16.919Z,99.90
2023-11-24T05:17:40.016Z,99.00
2023-11-24T05:23:04.613Z,99.20
2023-11-24T05:28:27.469Z,99.30
2023-11-24T05:33:50.479Z,97.80
2023-11-24T05:39:15.164Z,97.80
2023-11-24T05:44:38.105Z,96.30
2023-11-24T05:50:00.952Z,97.20
2023-11-24T05:55:25.538Z,98.50
2023-11-24T06:00:48.713Z,97.30
2023-11-24T06:06:12.388Z,99.10
2023-11-24T06:11:36.643Z,99.10
2023-11-24T06:16:59.776Z,99.20
2023-11-24T06:22:23.043Z,97.50
2023-11-24T06:27:47.478Z,98.60
2023-11-24T06:33:10.475Z,97.70
2023-11-24T06:38:33.420Z,95.80
2023-11-24T06:43:58.616Z,95.90
2023-11-24T06:49:21.944Z,96.40
2023-11-24T06:54:47.463Z,95.20
2023-11-24T07:00:16.749Z,94.80
2023-11-24T07:05:41.285Z,96.10
2023-11-24T07:11:07.212Z,96.30
2023-11-24T07:16:32.617Z,97.00
2023-11-24T07:21:57.949Z,98.70
2023-11-24T07:27:23.744Z,99.90
2023-11-24T07:32:48.835Z,99.90
2023-11-24T07:38:12.085Z,99.90
2023-11-24T07:43:42.688Z,98.90
2023-11-24T07:49:19.672Z,99.10
2023-11-24T07:54:43.356Z,98.00
2023-11-24T08:00:09.426Z,97.50
2023-11-24T08:05:37.410Z,97.40
2023-11-24T08:11:00.925Z,97.10
2023-11-24T08:16:25.442Z,96.90
2023-11-24T08:21:50.362Z,95.40
2023-11-24T08:27:18.643Z,96.80
2023-11-24T08:32:47.058Z,96.00
2023-11-24T08:38:13.165Z,93.60
2023-11-24T08:43:38.832Z,95.20
2023-11-24T08:49:58.551Z,94.70
2023-11-24T08:55:35.004Z,94.30
2023-11-24T09:00:59.158Z,92.60
2023-11-24T09:06:32.144Z,92.10
2023-11-24T09:12:02.166Z,94.30
2023-11-24T09:17:52.621Z,93.70
2023-11-24T09:23:19.962Z,94.30
2023-11-24T09:29:12.537Z,93.90
2023-11-24T09:34:40.527Z,92.60
2023-11-24T09:40:12.630Z,92.90
2023-11-24T09:45:38.658Z,90.70
2023-11-24T09:51:12.681Z,92.80
2023-11-24T09:56:36.146Z,92.70
2023-11-24T10:02:23.901Z,92.70
2023-11-24T10:08:02.098Z,90.90
2023-11-24T10:13:27.239Z,91.30
2023-11-24T10:18:56.448Z,92.00
2023-11-24T10:24:27.266Z,91.80
2023-11-24T10:29:52.320Z,90.60
2023-11-24T10:35:17.284Z,92.00
2023-11-24T10:40:41.357Z,90.30
2023-11-24T10:46:14.100Z,90.60
2023-11-24T10:58:39.205Z,90.10
2023-11-24T11:04:07.502Z,90.80
2023-11-24T11:09:34.049Z,89.10
2023-11-24T11:14:59.447Z,87.00
2023-11-24T11:20:33.474Z,88.50
2023-11-24T11:26:09.104Z,86.10
2023-11-24T11:31:35.542Z,85.30
2023-11-24T11:37:05.147Z,86.10
2023-11-24T11:42:52.941Z,84.90
2023-11-24T11:48:18.819Z,82.90
2023-11-24T11:53:43.389Z,82.10
2023-11-24T11:59:08.801Z,82.80
2023-11-24T12:04:34.886Z,81.50
2023-11-24T12:10:01.987Z,80.40
2023-11-24T12:15:25.603Z,81.60
2023-11-24T12:20:53.986Z,79.20
2023-11-24T12:26:18.388Z,83.10
2023-11-24T12:31:48.825Z,82.60
2023-11-24T12:37:16.081Z,83.10
2023-11-24T12:42:40.718Z,85.90
2023-11-24T12:48:18.943Z,88.50
2023-11-24T12:53:43.710Z,89.10
2023-11-24T12:59:13.915Z,89.10
2023-11-24T13:04:41.596Z,89.30
2023-11-24T13:10:08.685Z,90.00
2023-11-24T13:15:32.173Z,89.50
2023-11-24T13:21:03.119Z,89.00
2023-11-24T13:26:34.300Z,87.80
2023-11-24T13:31:58.496Z,87.80
2023-11-24T13:37:28.580Z,89.60
2023-11-24T13:43:04.106Z,87.30
2023-11-24T13:48:31.217Z,85.20
2023-11-24T13:53:56.605Z,84.60
2023-11-24T14:03:55.483Z,82.00
2023-11-24T14:13:57.919Z,83.80
2023-11-24T14:19:21.870Z,83.70
2023-11-24T14:24:45.396Z,86.10
2023-11-24T14:30:12.857Z,85.20
2023-11-24T14:35:37.031Z,85.30
2023-11-24T14:40:59.923Z,85.30
2023-11-24T14:46:25.545Z,85.60
2023-11-24T14:51:48.812Z,86.90
2023-11-24T14:57:16.779Z,89.50
2023-11-24T15:02:41.616Z,90.40
2023-11-24T15:08:05.722Z,91.70
2023-11-24T15:13:28.675Z,92.90
2023-11-24T15:18:53.149Z,93.40
2023-11-24T15:24:16.295Z,93.50
2023-11-24T15:29:39.801Z,94.70
2023-11-24T15:35:04.856Z,94.60
2023-11-24T15:40:27.819Z,94.00
2023-11-24T15:45:51.600Z,94.00
2023-11-24T15:51:22.215Z,94.20
2023-11-24T15:56:45.994Z,94.80
2023-11-24T16:02:09.310Z,93.90
2023-11-24T16:07:34.946Z,94.90
2023-11-24T16:13:00.223Z,93.80
2023-11-24T16:18:34.545Z,94.30
2023-11-24T16:24:02.149Z,95.00
2023-11-24T16:29:24.966Z,94.70
2023-11-24T16:34:47.892Z,93.80
2023-11-24T16:40:13.294Z,94.10
2023-11-24T16:45:36.566Z,93.70
2023-11-24T16:51:02.688Z,93.50
2023-11-24T16:56:26.954Z,93.20
2023-11-24T17:01:49.740Z,93.50
2023-11-24T17:07:12.732Z,93.40
2023-11-24T17:12:37.331Z,93.50
2023-11-24T17:18:00.272Z,93.40
2023-11-24T17:23:23.324Z,93.70
2023-11-24T17:28:48.060Z,93.50
2023-11-24T17:34:11.389Z,93.60
2023-11-24T17:39:34.434Z,93.70
2023-11-24T17:44:58.734Z,93.70
2023-11-24T17:50:21.695Z,93.40
2023-11-24T17:55:44.629Z,94.00
2023-11-24T18:01:09.059Z,93.70
2023-11-24T18:06:32.244Z,94.00
2023-11-24T18:11:55.229Z,94.10
2023-11-24T18:17:19.704Z,94.00
2023-11-24T18:22:42.769Z,94.40
2023-11-24T18:28:06.178Z,94.10
2023-11-24T18:33:30.464Z,93.70
2023-11-24T18:38:53.337Z,94.10
2023-11-24T18:44:16.389Z,93.90
2023-11-24T18:49:40.624Z,94.60
2023-11-24T18:55:04.208Z,94.50
2023-11-24T19:00:27.298Z,94.40
2023-11-24T19:05:52.082Z,94.20
2023-11-24T19:11:20.062Z,94.40
2023-11-24T19:16:45.520Z,94.30
2023-11-24T19:22:09.898Z,94.50
2023-11-24T19:27:32.775Z,94.40
2023-11-24T19:32:55.607Z,94.50
2023-11-24T19:38:21.838Z,94.40
2023-11-24T19:43:48.013Z,94.00
2023-11-24T19:49:11.073Z,94.20
2023-11-24T19:54:44.890Z,94.30
2023-11-24T20:00:09.524Z,94.20
2023-11-24T20:05:32.531Z,94.20
2023-11-24T20:10:56.884Z,94.20
2023-11-24T20:16:19.875Z,94.10
2023-11-24T20:21:43.264Z,94.50
2023-11-24T20:27:07.958Z,94.30
2023-11-24T20:32:33.691Z,94.20
2023-11-24T20:37:56.750Z,94.40
2023-11-24T20:43:21.067Z,94.10
2023-11-24T20:48:44.187Z,94.30
2023-11-24T20:54:07.933Z,94.10
2023-11-24T20:59:34.685Z,94.20
2023-11-24T21:04:57.991Z,93.80
2023-11-24T21:10:24.399Z,94.20
2023-11-24T21:15:48.804Z,93.90
2023-11-24T21:21:11.860Z,94.50
2023-11-24T21:26:34.610Z,94.70
2023-11-24T21:31:58.949Z,94.20
2023-11-24T21:37:21.772Z,94.40
2023-11-24T21:42:45.234Z,94.30
2023-11-24T21:48:09.567Z,94.40
2023-11-24T21:53:32.320Z,94.20
2023-11-24T21:58:55.150Z,94.00
2023-11-24T22:04:19.533Z,94.30
2023-11-24T22:09:42.318Z,94.40
2023-11-24T22:15:06.967Z,94.40
2023-11-24T22:20:31.373Z,94.40
2023-11-24T22:25:54.156Z,94.00
2023-11-24T22:31:17.300Z,94.10
2023-11-24T22:36:41.665Z,93.60
2023-11-24T22:42:04.878Z,94.70
2023-11-24T22:47:27.853Z,95.00
2023-11-24T22:52:52.026Z,94.50
2023-11-24T22:58:14.828Z,95.40
2023-11-24T23:03:38.782Z,97.10
2023-11-24T23:09:03.878Z,99.10
2023-11-24T23:14:27.029Z,99.90
2023-11-24T23:19:49.806Z,99.90
2023-11-24T23:25:14.812Z,99.90
2023-11-24T23:30:37.580Z,99.90
2023-11-24T23:36:00.555Z,99.90
2023-11-24T23:41:25.031Z,99.90
2023-11-24T23:46:47.956Z,99.90
2023-11-24T23:52:10.978Z,99.90
2023-11-24T23:57:35.211Z,99.90
